createdAt,value
2018-01-03T00:02:26.611Z,1.30
2018-01-03T00:04:54.959Z,1.07
2018-01-03T00:07:23.329Z,1.60
2018-01-03T00:09:52.457Z,2.00
2018-01-03T00:12:20.837Z,1.10
2018-01-03T00:14:49.248Z,1.07
2018-01-03T00:17:17.634Z,1.20
2018-01-03T00:19:46.181Z,1.03
2018-01-03T00:22:14.530Z,1.20
2018-01-03T00:24:43.009Z,2.60
2018-01-03T00:27:12.135Z,1.30
2018-01-03T00:29:40.509Z,0.90
2018-01-03T00:32:08.874Z,1.80
2018-01-03T00:34:37.241Z,1.20
2018-01-03T00:37:05.652Z,1.30
2018-01-03T00:39:34.081Z,0.83
2018-01-03T00:42:03.327Z,0.90
2018-01-03T00:44:32.617Z,1.03
2018-01-03T00:47:01.055Z,1.23
2018-01-03T00:49:30.226Z,1.93
2018-01-03T00:51:58.591Z,1.83
2018-01-03T00:54:26.959Z,1.90
2018-01-03T00:56:55.313Z,1.60
2018-01-03T00:59:23.966Z,1.93
2018-01-03T01:01:52.310Z,1.90
2018-01-03T01:04:20.710Z,3.30
2018-01-03T01:06:49.071Z,1.80
2018-01-03T01:09:17.444Z,1.73
2018-01-03T01:11:45.819Z,1.80
2018-01-03T01:14:14.174Z,2.10
2018-01-03T01:16:42.534Z,2.20
2018-01-03T01:19:11.034Z,2.00
2018-01-03T01:21:40.517Z,1.57
2018-01-03T01:24:08.863Z,1.70
2018-01-03T01:26:37.210Z,1.93
2018-01-03T01:29:05.727Z,1.53
2018-01-03T01:31:34.838Z,2.37
2018-01-03T01:34:03.211Z,1.50
2018-01-03T01:36:32.348Z,1.63
2018-01-03T01:39:00.750Z,1.67
2018-01-03T01:41:29.288Z,1.80
2018-01-03T01:43:57.656Z,4.97
2018-01-03T01:46:26.040Z,4.17
2018-01-03T01:49:05.567Z,2.73
2018-01-03T01:51:34.686Z,2.47
2018-01-03T01:54:03.084Z,2.77
2018-01-03T01:56:31.658Z,3.70
2018-01-03T01:59:00.010Z,3.43
2018-01-03T02:01:28.352Z,2.97
2018-01-03T02:03:56.716Z,3.53
2018-01-03T02:06:25.303Z,2.80
2018-01-03T02:08:53.688Z,3.10
2018-01-03T02:11:22.038Z,3.43
2018-01-03T02:13:50.574Z,3.23
2018-01-03T02:16:19.745Z,3.20
2018-01-03T02:18:48.105Z,2.97
2018-01-03T02:21:16.639Z,3.13
2018-01-03T02:23:45.104Z,3.50
2018-01-03T02:26:14.380Z,3.67
2018-01-03T02:28:42.879Z,3.67
2018-01-03T02:31:12.166Z,3.47
2018-01-03T02:33:41.283Z,4.83
2018-01-03T02:36:10.407Z,4.33
2018-01-03T02:38:38.786Z,3.50
2018-01-03T02:41:07.296Z,7.00
2018-01-03T02:43:35.848Z,4.70
2018-01-03T02:46:04.185Z,6.13
2018-01-03T02:48:33.455Z,4.80
2018-01-03T02:51:02.721Z,5.03
2018-01-03T02:53:31.218Z,5.63
2018-01-03T02:55:59.810Z,5.30
2018-01-03T02:58:28.370Z,4.60
2018-01-03T03:00:56.827Z,4.53
2018-01-03T03:03:25.409Z,7.47
2018-01-03T03:05:53.906Z,5.20
2018-01-03T03:08:22.572Z,5.90
2018-01-03T03:10:51.893Z,4.73
2018-01-03T03:13:20.337Z,4.73
2018-01-03T03:15:49.579Z,7.73
2018-01-03T03:18:17.977Z,5.47
2018-01-03T03:20:46.343Z,5.07
2018-01-03T03:23:14.714Z,4.83
2018-01-03T03:25:43.089Z,4.90
2018-01-03T03:28:11.794Z,6.03
2018-01-03T03:30:40.146Z,4.30
2018-01-03T03:33:08.524Z,3.93
2018-01-03T03:35:36.882Z,6.93
2018-01-03T03:38:05.229Z,3.20
2018-01-03T03:40:33.600Z,5.13
2018-01-03T03:43:03.202Z,1.93
2018-01-03T03:45:31.568Z,1.80
2018-01-03T03:48:00.029Z,1.73
2018-01-03T03:50:28.390Z,2.23
2018-01-03T03:52:56.916Z,2.67
2018-01-03T03:55:25.814Z,1.60
2018-01-03T03:57:54.185Z,1.70
2018-01-03T04:00:22.825Z,1.70
2018-01-03T04:02:51.208Z,5.10
2018-01-03T04:05:20.424Z,3.70
2018-01-03T04:07:48.827Z,2.60
2018-01-03T04:10:17.279Z,1.43
2018-01-03T04:12:45.652Z,1.50
2018-01-03T04:15:14.014Z,4.50
2018-01-03T04:17:42.363Z,1.13
2018-01-03T04:20:11.503Z,41.40
2018-01-03T04:22:39.996Z,2.33
2018-01-03T04:25:08.365Z,3.33
2018-01-03T04:27:36.850Z,0.67
2018-01-03T04:30:04.886Z,0.97
2018-01-03T04:32:33.218Z,1.27
2018-01-03T04:35:01.604Z,1.33
2018-01-03T04:37:29.966Z,1.17
2018-01-03T04:39:58.327Z,2.33
2018-01-03T04:42:26.734Z,0.80
2018-01-03T04:44:55.099Z,0.60
2018-01-03T04:47:23.500Z,1.50
2018-01-03T04:49:51.879Z,0.80
2018-01-03T04:52:20.226Z,1.63
2018-01-03T04:54:48.571Z,1.70
2018-01-03T04:57:16.963Z,0.97
2018-01-03T04:59:45.327Z,1.40
2018-01-03T05:02:14.275Z,0.73
2018-01-03T05:04:42.622Z,3.57
2018-01-03T05:07:10.999Z,1.33
2018-01-03T05:09:39.343Z,1.03
2018-01-03T05:12:07.874Z,1.13
2018-01-03T05:14:36.259Z,1.00
2018-01-03T05:17:04.617Z,0.77
2018-01-03T05:19:33.331Z,3.43
2018-01-03T05:22:01.926Z,1.60
2018-01-03T05:24:31.046Z,2.13
2018-01-03T05:26:59.598Z,0.90
2018-01-03T05:29:28.709Z,2.03
2018-01-03T05:31:57.188Z,1.60
2018-01-03T05:34:26.573Z,0.87
2018-01-03T05:36:55.675Z,3.03
2018-01-03T05:39:24.809Z,1.67
2018-01-03T05:41:53.268Z,1.23
2018-01-03T05:44:21.618Z,2.33
2018-01-03T05:46:50.915Z,1.70
2018-01-03T05:49:19.731Z,1.40
2018-01-03T05:51:48.203Z,0.80
2018-01-03T05:54:17.478Z,2.40
2018-01-03T05:56:45.839Z,1.77
2018-01-03T05:59:14.596Z,3.17
2018-01-03T06:01:42.975Z,2.90
2018-01-03T06:04:11.340Z,3.50
2018-01-03T06:06:39.689Z,2.80
2018-01-03T06:09:08.049Z,2.20
2018-01-03T06:11:38.912Z,3.83
2018-01-03T06:14:08.028Z,2.70
2018-01-03T06:16:36.476Z,4.00
2018-01-03T06:19:05.629Z,3.20
2018-01-03T06:21:34.043Z,7.63
2018-01-03T06:24:02.451Z,4.40
2018-01-03T06:26:30.814Z,5.00
2018-01-03T06:29:00.106Z,2.73
2018-01-03T06:31:29.240Z,2.90
2018-01-03T06:33:58.055Z,6.37
2018-01-03T06:36:26.459Z,7.67
2018-01-03T06:38:55.762Z,9.33
2018-01-03T06:41:24.861Z,6.67
2018-01-03T06:43:53.206Z,6.27
2018-01-03T06:46:21.686Z,6.20
2018-01-03T06:48:50.046Z,7.00
2018-01-03T06:51:18.478Z,6.07
2018-01-03T06:53:47.662Z,7.47
2018-01-03T06:56:16.391Z,9.00
2018-01-03T06:58:44.749Z,7.87
2018-01-03T07:01:14.032Z,8.10
2018-01-03T07:03:42.725Z,5.73
2018-01-03T07:06:11.099Z,8.80
2018-01-03T07:08:40.250Z,9.93
2018-01-03T07:11:08.621Z,11.73
2018-01-03T07:13:37.000Z,12.30
2018-01-03T07:16:05.540Z,12.97
2018-01-03T07:18:34.683Z,6.63
2018-01-03T07:21:03.033Z,6.23
2018-01-03T07:23:31.386Z,13.70
2018-01-03T07:26:00.518Z,11.27
2018-01-03T07:28:29.035Z,15.33
2018-01-03T07:30:57.396Z,10.97
2018-01-03T07:33:25.755Z,6.17
2018-01-03T07:35:54.256Z,10.40
2018-01-03T07:38:22.738Z,11.53
2018-01-03T07:40:51.296Z,11.73
2018-01-03T07:43:19.770Z,10.27
2018-01-03T07:45:48.126Z,14.17
2018-01-03T07:48:16.490Z,9.90
2018-01-03T07:50:45.625Z,14.13
2018-01-03T07:53:14.131Z,6.80
2018-01-03T07:55:42.583Z,9.40
2018-01-03T07:58:11.069Z,8.40
2018-01-03T08:00:39.658Z,9.00
2018-01-03T08:03:08.074Z,15.70
2018-01-03T08:05:36.432Z,14.13
2018-01-03T08:08:05.827Z,7.93
2018-01-03T08:10:34.325Z,11.97
2018-01-03T08:13:02.729Z,9.67
2018-01-03T08:15:32.331Z,9.53
2018-01-03T08:18:01.555Z,6.87
2018-01-03T08:20:29.961Z,18.13
2018-01-03T08:22:58.604Z,10.50
2018-01-03T08:25:27.906Z,15.50
2018-01-03T08:27:56.454Z,18.47
2018-01-03T08:30:24.972Z,11.93
2018-01-03T08:32:54.111Z,10.50
2018-01-03T08:35:22.503Z,17.03
2018-01-03T08:37:50.852Z,16.17
2018-01-03T08:40:19.225Z,14.63
2018-01-03T08:42:48.324Z,13.00
2018-01-03T08:45:16.855Z,15.07
2018-01-03T08:47:46.004Z,10.67
2018-01-03T08:50:14.410Z,12.90
2018-01-03T08:52:42.768Z,14.30
2018-01-03T08:55:11.167Z,13.10
2018-01-03T08:57:39.690Z,15.40
2018-01-03T09:00:08.808Z,8.70
2018-01-03T09:02:37.194Z,7.90
2018-01-03T09:05:05.631Z,19.53
2018-01-03T09:07:34.781Z,11.07
2018-01-03T09:10:03.156Z,10.67
2018-01-03T09:12:31.541Z,14.30
2018-01-03T09:14:59.936Z,17.90
2018-01-03T09:17:28.368Z,13.70
2018-01-03T09:19:56.761Z,14.30
2018-01-03T09:22:24.636Z,16.70
2018-01-03T09:24:53.022Z,16.73
2018-01-03T09:27:21.396Z,14.93
2018-01-03T09:29:49.737Z,11.20
2018-01-03T09:32:18.076Z,11.97
2018-01-03T09:34:46.480Z,11.97
2018-01-03T09:37:15.620Z,15.80
2018-01-03T09:39:43.999Z,21.63
2018-01-03T09:42:12.428Z,12.33
2018-01-03T09:44:41.799Z,22.20
2018-01-03T09:47:10.316Z,20.27
2018-01-03T09:49:38.709Z,20.73
2018-01-03T09:52:07.075Z,16.00
2018-01-03T09:54:36.547Z,13.63
2018-01-03T09:57:04.905Z,15.17
2018-01-03T09:59:33.384Z,20.33
2018-01-03T10:02:02.267Z,12.87
2018-01-03T10:04:30.638Z,13.67
2018-01-03T10:06:59.041Z,17.80
2018-01-03T10:09:27.517Z,17.80
2018-01-03T10:11:55.894Z,12.43
2018-01-03T10:14:24.554Z,15.43
2018-01-03T10:16:52.999Z,18.73
2018-01-03T10:19:22.402Z,17.63
2018-01-03T10:21:51.495Z,20.00
2018-01-03T10:24:19.999Z,19.40
2018-01-03T10:26:49.232Z,14.67
2018-01-03T10:29:17.616Z,13.43
2018-01-03T10:31:45.991Z,16.47
2018-01-03T10:34:14.122Z,18.67
2018-01-03T10:36:42.656Z,11.70
2018-01-03T10:39:11.061Z,19.17
2018-01-03T10:41:40.228Z,14.67
2018-01-03T10:44:08.698Z,14.53
2018-01-03T10:46:37.097Z,16.20
2018-01-03T10:49:05.625Z,19.00
2018-01-03T10:51:34.167Z,17.33
2018-01-03T10:54:03.393Z,18.50
2018-01-03T10:56:32.111Z,22.00
2018-01-03T10:59:00.630Z,15.33
2018-01-03T11:01:28.978Z,15.93
2018-01-03T11:03:57.359Z,14.43
2018-01-03T11:06:25.810Z,22.60
2018-01-03T11:08:54.319Z,16.03
2018-01-03T11:11:23.255Z,25.37
2018-01-03T11:13:52.462Z,19.23
2018-01-03T11:16:20.861Z,18.93
2018-01-03T11:18:49.400Z,15.63
2018-01-03T11:21:18.605Z,19.20
2018-01-03T11:23:47.108Z,15.00
2018-01-03T11:26:15.752Z,21.33
2018-01-03T11:28:44.162Z,19.27
2018-01-03T11:31:12.590Z,16.33
2018-01-03T11:33:41.167Z,21.10
2018-01-03T11:36:09.813Z,15.70
2018-01-03T11:38:38.206Z,19.67
2018-01-03T11:41:06.659Z,14.57
2018-01-03T11:43:35.067Z,15.17
2018-01-03T11:46:03.450Z,17.30
2018-01-03T11:48:31.928Z,11.90
2018-01-03T11:51:00.323Z,17.90
2018-01-03T11:53:28.856Z,17.23
2018-01-03T11:55:57.665Z,16.27
2018-01-03T11:58:26.046Z,15.63
2018-01-03T12:00:54.464Z,15.20
2018-01-03T12:03:22.946Z,10.03
2018-01-03T12:05:51.311Z,15.50
2018-01-03T12:08:20.491Z,13.70
2018-01-03T12:10:48.860Z,12.10
2018-01-03T12:13:17.305Z,17.40
2018-01-03T12:15:46.483Z,17.23
2018-01-03T12:18:14.860Z,23.00
2018-01-03T12:20:43.544Z,16.17
2018-01-03T12:23:12.966Z,11.93
2018-01-03T12:25:42.273Z,15.90
2018-01-03T12:28:11.430Z,9.90
2018-01-03T12:30:39.926Z,15.10
2018-01-03T12:33:09.271Z,12.50
2018-01-03T12:35:37.617Z,13.60
2018-01-03T12:38:06.773Z,16.10
2018-01-03T12:40:35.335Z,13.90
2018-01-03T12:43:03.716Z,14.87
2018-01-03T12:45:32.215Z,14.60
2018-01-03T12:48:00.580Z,16.73
2018-01-03T12:50:29.244Z,14.13
2018-01-03T12:52:57.593Z,20.10
2018-01-03T12:55:26.949Z,12.40
2018-01-03T12:57:55.471Z,16.77
2018-01-03T13:00:24.627Z,14.60
2018-01-03T13:02:53.297Z,13.53
2018-01-03T13:05:21.902Z,12.83
2018-01-03T13:07:50.523Z,14.70
2018-01-03T13:10:19.258Z,23.27
2018-01-03T13:12:47.662Z,19.17
2018-01-03T13:15:16.514Z,24.50
2018-01-03T13:17:45.057Z,19.40
2018-01-03T13:20:14.361Z,19.27
2018-01-03T13:22:43.524Z,16.93
2018-01-03T13:25:11.996Z,20.27
2018-01-03T13:27:40.377Z,20.93
2018-01-03T13:30:09.045Z,22.17
2018-01-03T13:32:37.550Z,15.23
2018-01-03T13:35:05.950Z,16.60
2018-01-03T13:37:34.442Z,17.27
2018-01-03T13:40:02.985Z,22.17
2018-01-03T13:42:31.356Z,17.77
2018-01-03T13:44:59.766Z,20.67
2018-01-03T13:47:28.230Z,21.63
2018-01-03T13:49:56.687Z,15.43
2018-01-03T13:52:25.188Z,19.17
2018-01-03T13:54:53.561Z,18.53
2018-01-03T13:57:21.959Z,17.20
2018-01-03T13:59:51.133Z,19.57
2018-01-03T14:02:19.635Z,15.60
2018-01-03T14:04:48.014Z,17.50
2018-01-03T14:07:16.371Z,13.20
2018-01-03T14:09:44.779Z,13.33
2018-01-03T14:12:13.911Z,19.20
2018-01-03T14:14:42.277Z,14.60
2018-01-03T14:17:10.676Z,18.67
2018-01-03T14:19:39.046Z,10.70
2018-01-03T14:22:08.222Z,12.30
2018-01-03T14:24:36.563Z,9.53
2018-01-03T14:27:04.615Z,12.60
2018-01-03T14:29:33.198Z,9.97
2018-01-03T14:32:01.548Z,19.83
2018-01-03T14:34:29.884Z,12.67
2018-01-03T14:36:59.021Z,14.53
2018-01-03T14:39:27.372Z,15.83
2018-01-03T14:41:56.488Z,18.10
2018-01-03T14:44:24.856Z,14.73
2018-01-03T14:46:53.216Z,19.57
2018-01-03T14:49:22.361Z,13.43
2018-01-03T14:51:50.701Z,16.43
2018-01-03T14:54:19.095Z,24.87
2018-01-03T14:56:47.464Z,19.53
2018-01-03T14:59:15.896Z,14.97
2018-01-03T15:01:44.267Z,16.33
2018-01-03T15:04:12.618Z,20.63
2018-01-03T15:06:40.969Z,12.73
2018-01-03T15:09:10.099Z,17.03
2018-01-03T15:11:38.440Z,18.83
2018-01-03T15:14:06.822Z,12.37
2018-01-03T15:16:35.166Z,20.50
2018-01-03T15:19:03.723Z,17.00
2018-01-03T15:21:32.181Z,19.03
2018-01-03T15:24:00.525Z,17.80
2018-01-03T15:26:29.654Z,21.67
2018-01-03T15:28:58.003Z,19.10
2018-01-03T15:31:27.131Z,21.90
2018-01-03T15:33:55.651Z,19.50
2018-01-03T15:36:24.014Z,22.03
2018-01-03T15:38:52.458Z,13.00
2018-01-03T15:41:20.817Z,31.33
2018-01-03T15:43:50.272Z,12.40
2018-01-03T15:46:19.559Z,18.83
2018-01-03T15:48:47.925Z,18.90
2018-01-03T15:51:16.259Z,21.50
2018-01-03T15:53:45.755Z,22.43
2018-01-03T15:56:14.882Z,18.93
2018-01-03T15:58:43.237Z,20.03
2018-01-03T16:01:12.391Z,20.07
2018-01-03T16:03:40.451Z,19.47
2018-01-03T16:06:09.028Z,17.77
2018-01-03T16:08:37.413Z,23.50
2018-01-03T16:11:05.435Z,21.50
2018-01-03T16:13:34.621Z,13.07
2018-01-03T16:16:03.007Z,13.23
2018-01-03T16:18:32.161Z,23.47
2018-01-03T16:21:00.634Z,12.60
2018-01-03T16:23:28.972Z,17.53
2018-01-03T16:25:58.263Z,20.03
2018-01-03T16:28:27.397Z,22.13
2018-01-03T16:30:56.085Z,25.07
2018-01-03T16:33:24.464Z,18.63
2018-01-03T16:35:53.152Z,20.20
2018-01-03T16:38:21.516Z,27.10
2018-01-03T16:40:49.899Z,20.40
2018-01-03T16:43:18.252Z,30.03
2018-01-03T16:45:47.548Z,20.10
2018-01-03T16:48:16.362Z,23.03
2018-01-03T16:50:44.738Z,26.30
2018-01-03T16:53:13.142Z,30.17
2018-01-03T16:55:41.511Z,25.73
2018-01-03T16:58:10.095Z,26.00
2018-01-03T17:00:38.471Z,24.57
2018-01-03T17:03:06.835Z,24.60
2018-01-03T17:05:35.304Z,30.97
2018-01-03T17:08:03.668Z,24.73
2018-01-03T17:10:32.787Z,22.50
2018-01-03T17:13:01.168Z,27.77
2018-01-03T17:15:29.521Z,23.60
2018-01-03T17:17:58.655Z,21.20
2018-01-03T17:20:27.054Z,25.93
2018-01-03T17:22:55.501Z,23.50
2018-01-03T17:25:24.070Z,21.07
2018-01-03T17:27:52.438Z,22.30
2018-01-03T17:30:20.799Z,21.93
2018-01-03T17:32:50.272Z,26.50
2018-01-03T17:35:18.795Z,32.70
2018-01-03T17:37:47.143Z,26.47
2018-01-03T17:40:16.264Z,21.53
2018-01-03T17:42:45.391Z,20.27
2018-01-03T17:45:13.973Z,24.10
2018-01-03T17:47:42.560Z,24.30
2018-01-03T17:50:11.171Z,27.17
2018-01-03T17:52:39.546Z,25.50
2018-01-03T17:55:08.027Z,19.53
2018-01-03T17:57:36.404Z,26.67
2018-01-03T18:00:04.759Z,18.67
2018-01-03T18:02:33.218Z,21.50
2018-01-03T18:05:01.619Z,19.13
2018-01-03T18:07:30.678Z,34.13
2018-01-03T18:09:59.820Z,26.93
2018-01-03T18:12:28.369Z,27.97
2018-01-03T18:14:56.690Z,29.70
2018-01-03T18:17:25.543Z,33.37
2018-01-03T18:19:53.981Z,26.23
2018-01-03T18:22:23.258Z,34.70
2018-01-03T18:24:51.908Z,27.87
2018-01-03T18:27:20.413Z,30.83
2018-01-03T18:29:49.045Z,31.27
2018-01-03T18:32:18.454Z,34.37
2018-01-03T18:34:46.889Z,28.90
2018-01-03T18:37:15.262Z,30.90
2018-01-03T18:39:43.666Z,29.87
2018-01-03T18:42:13.062Z,28.53
2018-01-03T18:44:41.494Z,26.73
2018-01-03T18:47:09.962Z,34.83
2018-01-03T18:49:38.564Z,29.47
2018-01-03T18:52:07.208Z,25.57
2018-01-03T18:54:36.395Z,31.53
2018-01-03T18:57:05.621Z,32.20
2018-01-03T18:59:34.005Z,29.03
2018-01-03T19:02:02.419Z,26.80
2018-01-03T19:04:30.951Z,22.07
2018-01-03T19:06:59.393Z,29.13
2018-01-03T19:09:28.036Z,22.33
2018-01-03T19:11:56.512Z,29.00
2018-01-03T19:14:25.204Z,34.00
2018-01-03T19:16:53.808Z,31.03
2018-01-03T19:19:23.282Z,28.33
2018-01-03T19:21:51.710Z,27.70
2018-01-03T19:24:20.099Z,20.80
2018-01-03T19:26:49.298Z,26.67
2018-01-03T19:29:18.031Z,13.20
2018-01-03T19:31:46.542Z,12.10
2018-01-03T19:34:15.130Z,7.67
2018-01-03T19:36:44.650Z,7.80
2018-01-03T19:39:13.893Z,17.40
2018-01-03T19:41:42.607Z,12.97
2018-01-03T19:44:11.161Z,17.73
2018-01-03T19:46:39.623Z,19.23
2018-01-03T19:49:08.120Z,18.70
2018-01-03T19:51:36.678Z,18.97
2018-01-03T19:54:05.205Z,25.13
2018-01-03T19:56:33.764Z,21.50
2018-01-03T19:59:02.451Z,14.17
2018-01-03T20:01:30.884Z,16.93
2018-01-03T20:03:59.434Z,22.27
2018-01-03T20:06:28.027Z,24.57
2018-01-03T20:08:56.397Z,28.93
2018-01-03T20:11:24.812Z,26.20
2018-01-03T20:13:54.125Z,31.13
2018-01-03T20:16:22.598Z,31.67
2018-01-03T20:18:51.729Z,34.77
2018-01-03T20:21:20.034Z,31.93
2018-01-03T20:23:48.406Z,25.90
2018-01-03T20:26:16.624Z,23.27
2018-01-03T20:28:46.353Z,30.63
2018-01-03T20:31:14.899Z,30.53
2018-01-03T20:33:44.049Z,17.93
2018-01-03T20:36:13.248Z,24.63
2018-01-03T20:38:41.748Z,25.67
2018-01-03T20:41:10.805Z,18.03
2018-01-03T20:43:39.498Z,29.23
2018-01-03T20:46:08.103Z,21.63
2018-01-03T20:48:36.595Z,28.80
2018-01-03T20:51:05.137Z,37.67
2018-01-03T20:53:33.526Z,27.10
2018-01-03T20:56:02.013Z,25.40
2018-01-03T20:58:30.498Z,33.63
2018-01-03T21:00:59.056Z,23.97
2018-01-03T21:03:27.452Z,26.40
2018-01-03T21:05:56.006Z,29.43
2018-01-03T21:08:24.606Z,25.90
2018-01-03T21:10:53.076Z,34.70
2018-01-03T21:13:21.705Z,29.87
2018-01-03T21:15:51.362Z,26.00
2018-01-03T21:18:20.269Z,32.70
2018-01-03T21:20:49.068Z,31.93
2018-01-03T21:23:18.066Z,28.13
2018-01-03T21:25:46.871Z,31.43
2018-01-03T21:28:15.352Z,38.83
2018-01-03T21:30:44.098Z,32.47
2018-01-03T21:33:12.501Z,35.57
2018-01-03T21:35:40.907Z,29.93
2018-01-03T21:38:10.222Z,32.77
2018-01-03T21:40:39.380Z,27.90
2018-01-03T21:43:08.349Z,41.80
2018-01-03T21:45:36.843Z,31.17
2018-01-03T21:48:05.267Z,28.67
2018-01-03T21:50:34.426Z,31.77
2018-01-03T21:53:03.013Z,34.73
2018-01-03T21:55:31.497Z,32.07
2018-01-03T21:58:00.261Z,29.37
2018-01-03T22:00:28.668Z,47.77
2018-01-03T22:02:57.108Z,33.67
2018-01-03T22:05:25.708Z,35.43
2018-01-03T22:07:54.155Z,33.60
2018-01-03T22:10:22.599Z,28.43
2018-01-03T22:12:51.344Z,31.00
2018-01-03T22:15:19.846Z,34.33
2018-01-03T22:17:48.438Z,30.27
2018-01-03T22:20:16.816Z,31.00
2018-01-03T22:22:45.308Z,40.50
2018-01-03T22:25:13.694Z,42.10
2018-01-03T22:27:42.068Z,32.03
2018-01-03T22:30:10.454Z,30.10
2018-01-03T22:32:40.314Z,34.27
2018-01-03T22:35:08.704Z,44.73
2018-01-03T22:37:39.026Z,36.70
2018-01-03T22:40:07.421Z,34.87
2018-01-03T22:42:35.840Z,31.53
2018-01-03T22:45:04.219Z,34.83
2018-01-03T22:47:33.367Z,36.60
2018-01-03T22:50:01.938Z,29.53
2018-01-03T22:52:30.408Z,30.57
2018-01-03T22:54:58.845Z,35.40
2018-01-03T22:57:27.365Z,29.77
2018-01-03T22:59:55.755Z,34.50
2018-01-03T23:02:24.202Z,32.80
2018-01-03T23:04:52.582Z,28.03
2018-01-03T23:07:20.988Z,41.63
2018-01-03T23:09:49.379Z,36.80
2018-01-03T23:12:17.764Z,29.90
2018-01-03T23:14:46.220Z,34.07
2018-01-03T23:17:15.375Z,32.23
2018-01-03T23:19:44.560Z,38.00
2018-01-03T23:22:12.947Z,40.47
2018-01-03T23:24:41.470Z,27.77
2018-01-03T23:27:09.958Z,38.90
2018-01-03T23:29:38.340Z,33.67
2018-01-03T23:32:06.719Z,30.60
2018-01-03T23:34:35.095Z,28.67
2018-01-03T23:37:03.479Z,36.07
2018-01-03T23:39:31.842Z,27.73
2018-01-03T23:42:00.231Z,31.80
2018-01-03T23:44:28.594Z,35.73
2018-01-03T23:46:57.259Z,32.00
2018-01-03T23:49:25.635Z,34.17
2018-01-03T23:51:53.747Z,27.90
2018-01-03T23:54:22.114Z,27.57
2018-01-03T23:56:50.515Z,38.07
2018-01-03T23:59:18.900Z,31.53
